sensor_id;sensor_type;location;lat;lon;timestamp;P1;durP1;ratioP1;P2;durP2;ratioP2
65420;SDS011;52028;50.658;14.004;2022-11-15T00:00:48;97.32;;;40.15;;
65420;SDS011;52028;50.658;14.004;2022-11-15T00:03:15;94.88;;;42.28;;
65420;SDS011;52028;50.658;14.004;2022-11-15T00:05:41;111.13;;;47.10;;
65420;SDS011;52028;50.658;14.004;2022-11-15T00:08:07;120.57;;;48.10;;
65420;SDS011;52028;50.658;14.004;2022-11-15T00:10:33;108.00;;;43.65;;
65420;SDS011;52028;50.658;14.004;2022-11-15T00:12:58;119.88;;;45.97;;
65420;SDS011;52028;50.658;14.004;2022-11-15T00:15:23;105.53;;;44.28;;
65420;SDS011;52028;50.658;14.004;2022-11-15T00:17:49;122.85;;;45.42;;
65420;SDS011;52028;50.658;14.004;2022-11-15T00:20:15;87.18;;;35.67;;
65420;SDS011;52028;50.658;14.004;2022-11-15T00:22:40;96.85;;;40.38;;
65420;SDS011;52028;50.658;14.004;2022-11-15T00:25:06;101.70;;;40.97;;
65420;SDS011;52028;50.658;14.004;2022-11-15T00:27:31;82.88;;;36.65;;
65420;SDS011;52028;50.658;14.004;2022-11-15T00:29:57;88.03;;;35.90;;
65420;SDS011;52028;50.658;14.004;2022-11-15T00:32:22;78.20;;;36.63;;
65420;SDS011;52028;50.658;14.004;2022-11-15T00:34:47;82.00;;;34.88;;
65420;SDS011;52028;50.658;14.004;2022-11-15T00:37:13;77.20;;;35.17;;
65420;SDS011;52028;50.658;14.004;2022-11-15T00:39:38;73.28;;;34.03;;
65420;SDS011;52028;50.658;14.004;2022-11-15T00:42:03;75.45;;;34.45;;
65420;SDS011;52028;50.658;14.004;2022-11-15T00:44:29;80.53;;;35.78;;
65420;SDS011;52028;50.658;14.004;2022-11-15T00:46:54;83.35;;;35.40;;
65420;SDS011;52028;50.658;14.004;2022-11-15T00:49:19;88.85;;;39.67;;
65420;SDS011;52028;50.658;14.004;2022-11-15T00:51:44;86.07;;;38.78;;
65420;SDS011;52028;50.658;14.004;2022-11-15T00:54:10;93.72;;;39.35;;
65420;SDS011;52028;50.658;14.004;2022-11-15T00:56:35;85.47;;;40.05;;
65420;SDS011;52028;50.658;14.004;2022-11-15T00:59:00;87.68;;;36.70;;
65420;SDS011;52028;50.658;14.004;2022-11-15T01:01:26;84.03;;;37.47;;
65420;SDS011;52028;50.658;14.004;2022-11-15T01:03:51;85.60;;;36.38;;
65420;SDS011;52028;50.658;14.004;2022-11-15T01:06:16;88.88;;;38.42;;
65420;SDS011;52028;50.658;14.004;2022-11-15T01:08:42;88.40;;;36.70;;
65420;SDS011;52028;50.658;14.004;2022-11-15T01:11:08;91.03;;;37.08;;
65420;SDS011;52028;50.658;14.004;2022-11-15T01:13:35;85.65;;;37.97;;
65420;SDS011;52028;50.658;14.004;2022-11-15T01:16:05;93.97;;;37.38;;
65420;SDS011;52028;50.658;14.004;2022-11-15T01:18:35;85.20;;;37.13;;
65420;SDS011;52028;50.658;14.004;2022-11-15T01:21:05;86.38;;;37.90;;
65420;SDS011;52028;50.658;14.004;2022-11-15T01:23:35;84.82;;;38.55;;
65420;SDS011;52028;50.658;14.004;2022-11-15T01:26:01;83.32;;;37.97;;
65420;SDS011;52028;50.658;14.004;2022-11-15T01:28:34;83.10;;;36.30;;
65420;SDS011;52028;50.658;14.004;2022-11-15T01:31:01;82.32;;;37.03;;
65420;SDS011;52028;50.658;14.004;2022-11-15T01:33:28;87.00;;;37.58;;
65420;SDS011;52028;50.658;14.004;2022-11-15T01:35:54;82.57;;;35.53;;
65420;SDS011;52028;50.658;14.004;2022-11-15T01:38:19;73.03;;;32.97;;
65420;SDS011;52028;50.658;14.004;2022-11-15T01:40:45;71.00;;;33.38;;
65420;SDS011;52028;50.658;14.004;2022-11-15T01:43:26;68.00;;;31.58;;
65420;SDS011;52028;50.658;14.004;2022-11-15T01:45:58;76.60;;;33.15;;
65420;SDS011;52028;50.658;14.004;2022-11-15T01:48:40;77.93;;;35.20;;
65420;SDS011;52028;50.658;14.004;2022-11-15T01:51:06;80.40;;;35.83;;
65420;SDS011;52028;50.658;14.004;2022-11-15T01:53:37;81.05;;;35.85;;
65420;SDS011;52028;50.658;14.004;2022-11-15T01:56:07;88.25;;;39.42;;
65420;SDS011;52028;50.658;14.004;2022-11-15T01:58:34;91.07;;;40.72;;
65420;SDS011;52028;50.658;14.004;2022-11-15T02:01:01;89.05;;;41.15;;
65420;SDS011;52028;50.658;14.004;2022-11-15T02:03:28;88.35;;;39.30;;
65420;SDS011;52028;50.658;14.004;2022-11-15T02:05:59;88.18;;;40.78;;
65420;SDS011;52028;50.658;14.004;2022-11-15T02:08:24;81.20;;;37.03;;
65420;SDS011;52028;50.658;14.004;2022-11-15T02:10:50;82.80;;;38.88;;
65420;SDS011;52028;50.658;14.004;2022-11-15T02:13:15;83.45;;;38.40;;
65420;SDS011;52028;50.658;14.004;2022-11-15T02:16:16;76.65;;;37.35;;
65420;SDS011;52028;50.658;14.004;2022-11-15T02:24:36;77.47;;;35.92;;
65420;SDS011;52028;50.658;14.004;2022-11-15T02:35:20;85.60;;;38.03;;
65420;SDS011;52028;50.658;14.004;2022-11-15T02:37:58;84.88;;;38.70;;
65420;SDS011;52028;50.658;14.004;2022-11-15T02:43:08;82.90;;;37.45;;
65420;SDS011;52028;50.658;14.004;2022-11-15T02:45:55;77.40;;;34.17;;
65420;SDS011;52028;50.658;14.004;2022-11-15T02:48:28;80.30;;;35.90;;
65420;SDS011;52028;50.658;14.004;2022-11-15T02:50:56;74.85;;;35.35;;
65420;SDS011;52028;50.658;14.004;2022-11-15T02:53:24;89.20;;;38.88;;
65420;SDS011;52028;50.658;14.004;2022-11-15T02:55:50;75.95;;;34.67;;
65420;SDS011;52028;50.658;14.004;2022-11-15T03:01:22;83.03;;;35.92;;
65420;SDS011;52028;50.658;14.004;2022-11-15T03:04:13;77.63;;;34.20;;
65420;SDS011;52028;50.658;14.004;2022-11-15T03:06:57;80.50;;;34.72;;
65420;SDS011;52028;50.658;14.004;2022-11-15T03:13:09;82.25;;;35.97;;
65420;SDS011;52028;50.658;14.004;2022-11-15T03:15:47;78.22;;;36.47;;
65420;SDS011;52028;50.658;14.004;2022-11-15T03:18:25;81.45;;;36.03;;
65420;SDS011;52028;50.658;14.004;2022-11-15T03:20:57;77.97;;;36.00;;
65420;SDS011;52028;50.658;14.004;2022-11-15T03:23:25;83.60;;;36.63;;
65420;SDS011;52028;50.658;14.004;2022-11-15T03:25:53;77.82;;;37.15;;
65420;SDS011;52028;50.658;14.004;2022-11-15T03:28:25;82.90;;;37.35;;
65420;SDS011;52028;50.658;14.004;2022-11-15T03:30:58;80.00;;;36.47;;
65420;SDS011;52028;50.658;14.004;2022-11-15T03:33:46;73.85;;;36.28;;
65420;SDS011;52028;50.658;14.004;2022-11-15T03:36:13;72.57;;;34.97;;
65420;SDS011;52028;50.658;14.004;2022-11-15T03:38:39;81.78;;;36.17;;
65420;SDS011;52028;50.658;14.004;2022-11-15T03:41:06;80.10;;;36.88;;
65420;SDS011;52028;50.658;14.004;2022-11-15T03:43:46;79.53;;;36.92;;
65420;SDS011;52028;50.658;14.004;2022-11-15T03:46:24;83.53;;;36.58;;
65420;SDS011;52028;50.658;14.004;2022-11-15T03:48:59;86.50;;;37.72;;
65420;SDS011;52028;50.658;14.004;2022-11-15T03:51:40;88.18;;;38.75;;
65420;SDS011;52028;50.658;14.004;2022-11-15T03:54:05;86.15;;;37.88;;
65420;SDS011;52028;50.658;14.004;2022-11-15T03:56:31;81.25;;;36.60;;
65420;SDS011;52028;50.658;14.004;2022-11-15T03:58:56;80.05;;;35.70;;
65420;SDS011;52028;50.658;14.004;2022-11-15T04:01:22;85.63;;;36.60;;
65420;SDS011;52028;50.658;14.004;2022-11-15T04:03:47;77.30;;;36.83;;
65420;SDS011;52028;50.658;14.004;2022-11-15T04:06:13;84.20;;;37.72;;
65420;SDS011;52028;50.658;14.004;2022-11-15T04:08:38;79.70;;;37.42;;
65420;SDS011;52028;50.658;14.004;2022-11-15T04:11:03;83.07;;;37.75;;
65420;SDS011;52028;50.658;14.004;2022-11-15T04:13:28;72.07;;;35.63;;
65420;SDS011;52028;50.658;14.004;2022-11-15T04:15:54;78.53;;;35.53;;
65420;SDS011;52028;50.658;14.004;2022-11-15T04:18:19;77.75;;;35.33;;
65420;SDS011;52028;50.658;14.004;2022-11-15T04:20:45;81.10;;;37.22;;
65420;SDS011;52028;50.658;14.004;2022-11-15T04:23:45;81.53;;;36.50;;
65420;SDS011;52028;50.658;14.004;2022-11-15T04:26:17;79.78;;;35.83;;
65420;SDS011;52028;50.658;14.004;2022-11-15T04:28:45;74.07;;;34.00;;
65420;SDS011;52028;50.658;14.004;2022-11-15T04:31:28;85.47;;;37.22;;
65420;SDS011;52028;50.658;14.004;2022-11-15T04:33:54;77.38;;;35.55;;
65420;SDS011;52028;50.658;14.004;2022-11-15T04:36:20;73.50;;;37.15;;
65420;SDS011;52028;50.658;14.004;2022-11-15T04:39:04;74.63;;;35.80;;
65420;SDS011;52028;50.658;14.004;2022-11-15T04:41:30;82.82;;;35.22;;
65420;SDS011;52028;50.658;14.004;2022-11-15T04:43:55;79.07;;;36.50;;
65420;SDS011;52028;50.658;14.004;2022-11-15T04:46:21;77.50;;;35.55;;
65420;SDS011;52028;50.658;14.004;2022-11-15T04:48:50;71.32;;;35.10;;
65420;SDS011;52028;50.658;14.004;2022-11-15T04:51:15;78.88;;;36.45;;
65420;SDS011;52028;50.658;14.004;2022-11-15T04:53:41;83.90;;;37.80;;
65420;SDS011;52028;50.658;14.004;2022-11-15T04:56:06;88.70;;;37.90;;
65420;SDS011;52028;50.658;14.004;2022-11-15T04:58:32;73.97;;;35.15;;
65420;SDS011;52028;50.658;14.004;2022-11-15T05:00:57;77.00;;;36.72;;
65420;SDS011;52028;50.658;14.004;2022-11-15T05:03:22;89.95;;;36.75;;
65420;SDS011;52028;50.658;14.004;2022-11-15T05:06:06;86.03;;;38.90;;
65420;SDS011;52028;50.658;14.004;2022-11-15T05:08:32;74.80;;;37.17;;
65420;SDS011;52028;50.658;14.004;2022-11-15T05:10:57;92.72;;;38.35;;
65420;SDS011;52028;50.658;14.004;2022-11-15T05:13:23;105.63;;;44.45;;
65420;SDS011;52028;50.658;14.004;2022-11-15T05:15:48;100.28;;;47.25;;
65420;SDS011;52028;50.658;14.004;2022-11-15T05:18:13;107.38;;;47.05;;
65420;SDS011;52028;50.658;14.004;2022-11-15T05:20:39;80.47;;;37.05;;
65420;SDS011;52028;50.658;14.004;2022-11-15T05:23:04;87.65;;;37.72;;
65420;SDS011;52028;50.658;14.004;2022-11-15T05:25:29;76.47;;;32.13;;
65420;SDS011;52028;50.658;14.004;2022-11-15T05:27:55;78.65;;;32.72;;
65420;SDS011;52028;50.658;14.004;2022-11-15T05:30:21;76.75;;;30.25;;
65420;SDS011;52028;50.658;14.004;2022-11-15T05:32:46;66.75;;;26.92;;
65420;SDS011;52028;50.658;14.004;2022-11-15T05:35:13;67.85;;;28.85;;
65420;SDS011;52028;50.658;14.004;2022-11-15T05:37:50;74.30;;;30.00;;
65420;SDS011;52028;50.658;14.004;2022-11-15T05:40:16;69.28;;;28.17;;
65420;SDS011;52028;50.658;14.004;2022-11-15T05:42:41;74.32;;;31.88;;
65420;SDS011;52028;50.658;14.004;2022-11-15T05:45:07;77.47;;;32.20;;
65420;SDS011;52028;50.658;14.004;2022-11-15T05:47:34;73.53;;;30.30;;
65420;SDS011;52028;50.658;14.004;2022-11-15T05:50:01;76.13;;;31.58;;
65420;SDS011;52028;50.658;14.004;2022-11-15T05:52:28;71.63;;;28.20;;
65420;SDS011;52028;50.658;14.004;2022-11-15T05:54:56;73.25;;;30.48;;
65420;SDS011;52028;50.658;14.004;2022-11-15T05:57:23;82.20;;;30.55;;
65420;SDS011;52028;50.658;14.004;2022-11-15T05:59:49;75.43;;;28.05;;
65420;SDS011;52028;50.658;14.004;2022-11-15T06:02:15;67.43;;;27.40;;
65420;SDS011;52028;50.658;14.004;2022-11-15T06:04:41;68.25;;;25.75;;
65420;SDS011;52028;50.658;14.004;2022-11-15T06:07:06;60.55;;;25.70;;
65420;SDS011;52028;50.658;14.004;2022-11-15T06:09:31;65.38;;;26.17;;
65420;SDS011;52028;50.658;14.004;2022-11-15T06:11:56;65.72;;;25.67;;
65420;SDS011;52028;50.658;14.004;2022-11-15T06:14:22;76.07;;;27.48;;
65420;SDS011;52028;50.658;14.004;2022-11-15T06:16:47;77.55;;;28.98;;
65420;SDS011;52028;50.658;14.004;2022-11-15T06:19:12;73.30;;;28.65;;
65420;SDS011;52028;50.658;14.004;2022-11-15T06:21:38;82.28;;;29.52;;
65420;SDS011;52028;50.658;14.004;2022-11-15T06:24:03;93.68;;;32.22;;
65420;SDS011;52028;50.658;14.004;2022-11-15T06:26:30;88.93;;;31.80;;
65420;SDS011;52028;50.658;14.004;2022-11-15T06:28:55;80.72;;;31.17;;
65420;SDS011;52028;50.658;14.004;2022-11-15T06:31:20;97.18;;;31.95;;
65420;SDS011;52028;50.658;14.004;2022-11-15T06:33:46;96.97;;;33.28;;
65420;SDS011;52028;50.658;14.004;2022-11-15T06:36:14;81.53;;;32.35;;
65420;SDS011;52028;50.658;14.004;2022-11-15T06:38:41;83.75;;;29.15;;
65420;SDS011;52028;50.658;14.004;2022-11-15T06:41:07;79.38;;;28.63;;
65420;SDS011;52028;50.658;14.004;2022-11-15T06:43:34;72.13;;;27.88;;
65420;SDS011;52028;50.658;14.004;2022-11-15T06:46:00;77.57;;;28.90;;
65420;SDS011;52028;50.658;14.004;2022-11-15T06:48:27;87.75;;;32.53;;
65420;SDS011;52028;50.658;14.004;2022-11-15T06:50:53;93.32;;;30.25;;
65420;SDS011;52028;50.658;14.004;2022-11-15T06:53:20;89.65;;;32.58;;
65420;SDS011;52028;50.658;14.004;2022-11-15T06:55:46;91.18;;;31.55;;
65420;SDS011;52028;50.658;14.004;2022-11-15T06:58:11;85.03;;;32.08;;
65420;SDS011;52028;50.658;14.004;2022-11-15T07:00:36;84.63;;;32.78;;
65420;SDS011;52028;50.658;14.004;2022-11-15T07:03:02;87.28;;;32.20;;
65420;SDS011;52028;50.658;14.004;2022-11-15T07:05:28;78.72;;;31.23;;
65420;SDS011;52028;50.658;14.004;2022-11-15T07:07:54;83.63;;;31.52;;
65420;SDS011;52028;50.658;14.004;2022-11-15T07:10:21;68.80;;;28.05;;
65420;SDS011;52028;50.658;14.004;2022-11-15T07:12:47;70.53;;;28.75;;
65420;SDS011;52028;50.658;14.004;2022-11-15T07:15:14;68.20;;;28.52;;
65420;SDS011;52028;50.658;14.004;2022-11-15T07:17:40;66.60;;;26.33;;
65420;SDS011;52028;50.658;14.004;2022-11-15T07:20:05;69.13;;;26.98;;
65420;SDS011;52028;50.658;14.004;2022-11-15T07:22:31;63.97;;;26.83;;
65420;SDS011;52028;50.658;14.004;2022-11-15T07:25:00;58.75;;;25.55;;
65420;SDS011;52028;50.658;14.004;2022-11-15T07:27:25;62.95;;;23.60;;
65420;SDS011;52028;50.658;14.004;2022-11-15T07:29:50;66.32;;;26.58;;
65420;SDS011;52028;50.658;14.004;2022-11-15T07:32:16;72.72;;;28.63;;
65420;SDS011;52028;50.658;14.004;2022-11-15T07:34:41;70.80;;;27.40;;
65420;SDS011;52028;50.658;14.004;2022-11-15T07:37:07;69.13;;;27.00;;
65420;SDS011;52028;50.658;14.004;2022-11-15T07:39:33;62.00;;;24.17;;
65420;SDS011;52028;50.658;14.004;2022-11-15T07:41:58;58.28;;;24.27;;
65420;SDS011;52028;50.658;14.004;2022-11-15T07:44:42;53.75;;;21.80;;
65420;SDS011;52028;50.658;14.004;2022-11-15T07:47:08;50.83;;;23.33;;
65420;SDS011;52028;50.658;14.004;2022-11-15T07:49:33;66.32;;;28.95;;
65420;SDS011;52028;50.658;14.004;2022-11-15T07:51:58;54.55;;;23.50;;
65420;SDS011;52028;50.658;14.004;2022-11-15T07:54:23;47.53;;;20.95;;
65420;SDS011;52028;50.658;14.004;2022-11-15T07:56:49;50.47;;;20.55;;
65420;SDS011;52028;50.658;14.004;2022-11-15T07:59:14;48.40;;;18.88;;
65420;SDS011;52028;50.658;14.004;2022-11-15T08:01:39;46.15;;;22.15;;
65420;SDS011;52028;50.658;14.004;2022-11-15T08:04:05;45.10;;;20.15;;
65420;SDS011;52028;50.658;14.004;2022-11-15T08:06:30;41.15;;;18.63;;
65420;SDS011;52028;50.658;14.004;2022-11-15T08:08:55;42.40;;;19.25;;
65420;SDS011;52028;50.658;14.004;2022-11-15T08:11:21;45.47;;;19.73;;
65420;SDS011;52028;50.658;14.004;2022-11-15T08:13:46;47.35;;;19.92;;
65420;SDS011;52028;50.658;14.004;2022-11-15T08:16:11;49.35;;;21.25;;
65420;SDS011;52028;50.658;14.004;2022-11-15T08:18:37;44.65;;;20.95;;
65420;SDS011;52028;50.658;14.004;2022-11-15T08:21:03;46.15;;;20.50;;
65420;SDS011;52028;50.658;14.004;2022-11-15T08:23:28;44.20;;;20.02;;
65420;SDS011;52028;50.658;14.004;2022-11-15T08:26:04;38.10;;;18.52;;
65420;SDS011;52028;50.658;14.004;2022-11-15T08:28:31;38.55;;;17.45;;
65420;SDS011;52028;50.658;14.004;2022-11-15T08:30:57;42.38;;;19.98;;
65420;SDS011;52028;50.658;14.004;2022-11-15T08:33:22;42.17;;;19.10;;
65420;SDS011;52028;50.658;14.004;2022-11-15T08:35:47;42.42;;;18.08;;
65420;SDS011;52028;50.658;14.004;2022-11-15T08:38:13;46.72;;;19.52;;
65420;SDS011;52028;50.658;14.004;2022-11-15T08:40:39;40.58;;;18.02;;
65420;SDS011;52028;50.658;14.004;2022-11-15T08:43:05;43.28;;;17.98;;
65420;SDS011;52028;50.658;14.004;2022-11-15T08:45:31;40.33;;;18.13;;
65420;SDS011;52028;50.658;14.004;2022-11-15T08:47:58;45.03;;;18.38;;
65420;SDS011;52028;50.658;14.004;2022-11-15T08:50:26;45.35;;;18.92;;
65420;SDS011;52028;50.658;14.004;2022-11-15T08:52:51;45.60;;;21.10;;
65420;SDS011;52028;50.658;14.004;2022-11-15T08:55:17;37.72;;;19.15;;
65420;SDS011;52028;50.658;14.004;2022-11-15T08:57:42;41.88;;;18.58;;
65420;SDS011;52028;50.658;14.004;2022-11-15T09:00:07;45.67;;;19.92;;
65420;SDS011;52028;50.658;14.004;2022-11-15T09:02:33;47.42;;;20.80;;
65420;SDS011;52028;50.658;14.004;2022-11-15T09:04:59;41.80;;;19.45;;
65420;SDS011;52028;50.658;14.004;2022-11-15T09:07:24;37.85;;;17.27;;
65420;SDS011;52028;50.658;14.004;2022-11-15T09:09:49;33.00;;;16.85;;
65420;SDS011;52028;50.658;14.004;2022-11-15T09:12:15;39.33;;;16.75;;
65420;SDS011;52028;50.658;14.004;2022-11-15T09:14:40;42.60;;;18.13;;
65420;SDS011;52028;50.658;14.004;2022-11-15T09:17:08;38.45;;;17.60;;
65420;SDS011;52028;50.658;14.004;2022-11-15T09:19:34;43.83;;;18.80;;
65420;SDS011;52028;50.658;14.004;2022-11-15T09:21:59;51.35;;;19.00;;
65420;SDS011;52028;50.658;14.004;2022-11-15T09:24:25;42.58;;;18.15;;
65420;SDS011;52028;50.658;14.004;2022-11-15T09:26:51;45.08;;;17.90;;
65420;SDS011;52028;50.658;14.004;2022-11-15T09:29:17;44.95;;;18.30;;
65420;SDS011;52028;50.658;14.004;2022-11-15T09:31:45;43.83;;;17.95;;
65420;SDS011;52028;50.658;14.004;2022-11-15T09:34:11;44.72;;;18.75;;
65420;SDS011;52028;50.658;14.004;2022-11-15T09:36:36;44.78;;;20.08;;
65420;SDS011;52028;50.658;14.004;2022-11-15T09:39:02;43.88;;;20.15;;
65420;SDS011;52028;50.658;14.004;2022-11-15T09:41:45;39.70;;;19.27;;
65420;SDS011;52028;50.658;14.004;2022-11-15T09:49:28;39.55;;;18.10;;
65420;SDS011;52028;50.658;14.004;2022-11-15T09:51:56;41.22;;;17.20;;
65420;SDS011;52028;50.658;14.004;2022-11-15T09:54:32;37.88;;;16.90;;
65420;SDS011;52028;50.658;14.004;2022-11-15T10:02:38;38.63;;;17.75;;
65420;SDS011;52028;50.658;14.004;2022-11-15T10:05:08;31.77;;;15.00;;
65420;SDS011;52028;50.658;14.004;2022-11-15T10:07:44;37.75;;;18.48;;
65420;SDS011;52028;50.658;14.004;2022-11-15T10:10:19;36.10;;;16.20;;
65420;SDS011;52028;50.658;14.004;2022-11-15T10:12:56;40.20;;;17.02;;
65420;SDS011;52028;50.658;14.004;2022-11-15T10:15:22;34.15;;;16.98;;
65420;SDS011;52028;50.658;14.004;2022-11-15T10:20:49;33.63;;;15.68;;
65420;SDS011;52028;50.658;14.004;2022-11-15T10:23:20;37.22;;;15.93;;
65420;SDS011;52028;50.658;14.004;2022-11-15T10:25:47;43.22;;;18.23;;
65420;SDS011;52028;50.658;14.004;2022-11-15T10:28:21;35.53;;;16.02;;
65420;SDS011;52028;50.658;14.004;2022-11-15T10:30:54;37.17;;;16.92;;
65420;SDS011;52028;50.658;14.004;2022-11-15T10:36:04;36.30;;;17.08;;
65420;SDS011;52028;50.658;14.004;2022-11-15T10:44:01;35.95;;;15.48;;
65420;SDS011;52028;50.658;14.004;2022-11-15T10:46:43;32.03;;;15.23;;
65420;SDS011;52028;50.658;14.004;2022-11-15T10:49:16;34.83;;;15.25;;
65420;SDS011;52028;50.658;14.004;2022-11-15T10:51:47;39.55;;;16.42;;
65420;SDS011;52028;50.658;14.004;2022-11-15T10:54:25;34.50;;;15.52;;
65420;SDS011;52028;50.658;14.004;2022-11-15T10:56:55;36.45;;;16.20;;
65420;SDS011;52028;50.658;14.004;2022-11-15T10:59:32;32.42;;;15.35;;
65420;SDS011;52028;50.658;14.004;2022-11-15T11:02:00;34.63;;;14.85;;
65420;SDS011;52028;50.658;14.004;2022-11-15T11:04:26;32.40;;;14.43;;
65420;SDS011;52028;50.658;14.004;2022-11-15T11:06:52;33.55;;;14.82;;
65420;SDS011;52028;50.658;14.004;2022-11-15T11:09:35;33.80;;;14.30;;
65420;SDS011;52028;50.658;14.004;2022-11-15T11:12:05;32.85;;;14.50;;
65420;SDS011;52028;50.658;14.004;2022-11-15T11:14:35;31.05;;;14.23;;
65420;SDS011;52028;50.658;14.004;2022-11-15T11:17:06;34.60;;;15.13;;
65420;SDS011;52028;50.658;14.004;2022-11-15T11:27:47;39.38;;;16.58;;
65420;SDS011;52028;50.658;14.004;2022-11-15T11:30:32;39.67;;;17.00;;
65420;SDS011;52028;50.658;14.004;2022-11-15T11:35:44;34.80;;;15.00;;
65420;SDS011;52028;50.658;14.004;2022-11-15T11:49:06;42.30;;;17.40;;
65420;SDS011;52028;50.658;14.004;2022-11-15T11:54:40;40.55;;;16.92;;
65420;SDS011;52028;50.658;14.004;2022-11-15T12:00:25;39.25;;;16.95;;
65420;SDS011;52028;50.658;14.004;2022-11-15T12:03:02;48.27;;;17.20;;
65420;SDS011;52028;50.658;14.004;2022-11-15T12:05:37;39.85;;;17.40;;
65420;SDS011;52028;50.658;14.004;2022-11-15T12:08:19;39.92;;;16.73;;
65420;SDS011;52028;50.658;14.004;2022-11-15T12:10:52;36.30;;;17.08;;
65420;SDS011;52028;50.658;14.004;2022-11-15T12:13:25;36.40;;;16.48;;
65420;SDS011;52028;50.658;14.004;2022-11-15T12:15:56;44.13;;;17.40;;
65420;SDS011;52028;50.658;14.004;2022-11-15T12:18:27;40.92;;;18.20;;
65420;SDS011;52028;50.658;14.004;2022-11-15T12:21:36;39.72;;;16.70;;
65420;SDS011;52028;50.658;14.004;2022-11-15T12:23:52;46.72;;;17.92;;
65420;SDS011;52028;50.658;14.004;2022-11-15T12:26:26;45.13;;;20.00;;
65420;SDS011;52028;50.658;14.004;2022-11-15T12:28:59;45.47;;;17.85;;
65420;SDS011;52028;50.658;14.004;2022-11-15T12:34:00;43.78;;;17.75;;
65420;SDS011;52028;50.658;14.004;2022-11-15T12:36:33;43.03;;;17.15;;
65420;SDS011;52028;50.658;14.004;2022-11-15T12:39:03;39.25;;;17.50;;
65420;SDS011;52028;50.658;14.004;2022-11-15T12:41:33;39.85;;;16.30;;
65420;SDS011;52028;50.658;14.004;2022-11-15T12:44:00;43.35;;;17.23;;
65420;SDS011;52028;50.658;14.004;2022-11-15T12:48:55;39.85;;;18.77;;
65420;SDS011;52028;50.658;14.004;2022-11-15T13:00:36;38.67;;;16.42;;
65420;SDS011;52028;50.658;14.004;2022-11-15T13:02:38;46.05;;;17.80;;
65420;SDS011;52028;50.658;14.004;2022-11-15T13:31:25;46.90;;;18.92;;
65420;SDS011;52028;50.658;14.004;2022-11-15T13:33:54;39.85;;;17.45;;
65420;SDS011;52028;50.658;14.004;2022-11-15T13:36:23;37.80;;;15.97;;
65420;SDS011;52028;50.658;14.004;2022-11-15T13:38:55;37.70;;;18.30;;
65420;SDS011;52028;50.658;14.004;2022-11-15T13:42:04;39.75;;;18.33;;
65420;SDS011;52028;50.658;14.004;2022-11-15T13:44:29;33.90;;;14.75;;
65420;SDS011;52028;50.658;14.004;2022-11-15T13:47:13;33.22;;;15.15;;
65420;SDS011;52028;50.658;14.004;2022-11-15T13:49:39;39.80;;;16.73;;
65420;SDS011;52028;50.658;14.004;2022-11-15T13:52:07;35.38;;;15.25;;
65420;SDS011;52028;50.658;14.004;2022-11-15T13:54:45;37.70;;;16.13;;
65420;SDS011;52028;50.658;14.004;2022-11-15T14:00:05;37.95;;;16.00;;
65420;SDS011;52028;50.658;14.004;2022-11-15T14:02:47;40.28;;;16.50;;
65420;SDS011;52028;50.658;14.004;2022-11-15T14:05:20;44.10;;;16.63;;
65420;SDS011;52028;50.658;14.004;2022-11-15T14:07:57;44.95;;;17.27;;
65420;SDS011;52028;50.658;14.004;2022-11-15T14:10:38;38.20;;;16.40;;
65420;SDS011;52028;50.658;14.004;2022-11-15T14:13:09;41.05;;;16.80;;
65420;SDS011;52028;50.658;14.004;2022-11-15T14:15:51;40.00;;;16.75;;
65420;SDS011;52028;50.658;14.004;2022-11-15T14:18:39;39.17;;;17.20;;
65420;SDS011;52028;50.658;14.004;2022-11-15T14:21:09;40.20;;;16.75;;
65420;SDS011;52028;50.658;14.004;2022-11-15T14:23:34;35.30;;;15.98;;
65420;SDS011;52028;50.658;14.004;2022-11-15T14:26:00;39.35;;;15.27;;
65420;SDS011;52028;50.658;14.004;2022-11-15T14:30:51;37.03;;;16.75;;
65420;SDS011;52028;50.658;14.004;2022-11-15T14:33:34;36.38;;;15.52;;
65420;SDS011;52028;50.658;14.004;2022-11-15T14:36:17;39.50;;;16.27;;
65420;SDS011;52028;50.658;14.004;2022-11-15T14:38:44;41.50;;;16.90;;
65420;SDS011;52028;50.658;14.004;2022-11-15T14:41:20;45.92;;;19.67;;
65420;SDS011;52028;50.658;14.004;2022-11-15T14:46:16;47.53;;;18.42;;
65420;SDS011;52028;50.658;14.004;2022-11-15T14:48:41;42.40;;;17.85;;
65420;SDS011;52028;50.658;14.004;2022-11-15T14:51:11;49.33;;;19.17;;
65420;SDS011;52028;50.658;14.004;2022-11-15T14:53:39;45.15;;;18.45;;
65420;SDS011;52028;50.658;14.004;2022-11-15T14:56:08;52.67;;;20.95;;
65420;SDS011;52028;50.658;14.004;2022-11-15T14:58:38;42.00;;;17.83;;
65420;SDS011;52028;50.658;14.004;2022-11-15T15:01:14;43.92;;;18.08;;
65420;SDS011;52028;50.658;14.004;2022-11-15T15:03:44;48.42;;;19.42;;
65420;SDS011;52028;50.658;14.004;2022-11-15T15:06:09;45.08;;;19.25;;
65420;SDS011;52028;50.658;14.004;2022-11-15T15:08:37;53.40;;;22.02;;
65420;SDS011;52028;50.658;14.004;2022-11-15T15:11:03;52.67;;;21.25;;
65420;SDS011;52028;50.658;14.004;2022-11-15T15:13:34;54.63;;;20.90;;
65420;SDS011;52028;50.658;14.004;2022-11-15T15:15:59;53.50;;;20.63;;
65420;SDS011;52028;50.658;14.004;2022-11-15T15:18:24;48.63;;;18.73;;
65420;SDS011;52028;50.658;14.004;2022-11-15T15:20:54;50.72;;;20.27;;
65420;SDS011;52028;50.658;14.004;2022-11-15T15:23:27;44.78;;;18.42;;
65420;SDS011;52028;50.658;14.004;2022-11-15T15:25:55;52.47;;;20.75;;
65420;SDS011;52028;50.658;14.004;2022-11-15T15:28:21;44.47;;;18.77;;
65420;SDS011;52028;50.658;14.004;2022-11-15T15:30:46;43.17;;;18.85;;
65420;SDS011;52028;50.658;14.004;2022-11-15T15:33:11;38.72;;;17.90;;
65420;SDS011;52028;50.658;14.004;2022-11-15T15:35:37;39.35;;;16.88;;
65420;SDS011;52028;50.658;14.004;2022-11-15T15:38:02;42.72;;;18.15;;
65420;SDS011;52028;50.658;14.004;2022-11-15T15:40:29;38.75;;;16.27;;
65420;SDS011;52028;50.658;14.004;2022-11-15T15:42:56;45.15;;;16.58;;
65420;SDS011;52028;50.658;14.004;2022-11-15T15:45:21;37.47;;;16.92;;
65420;SDS011;52028;50.658;14.004;2022-11-15T15:47:47;39.90;;;17.05;;
65420;SDS011;52028;50.658;14.004;2022-11-15T15:52:42;36.28;;;16.58;;
65420;SDS011;52028;50.658;14.004;2022-11-15T15:55:07;44.33;;;17.48;;
65420;SDS011;52028;50.658;14.004;2022-11-15T15:57:33;46.42;;;17.63;;
65420;SDS011;52028;50.658;14.004;2022-11-15T15:59:59;37.92;;;17.35;;
65420;SDS011;52028;50.658;14.004;2022-11-15T16:02:24;41.95;;;18.33;;
65420;SDS011;52028;50.658;14.004;2022-11-15T16:04:49;52.00;;;19.08;;
65420;SDS011;52028;50.658;14.004;2022-11-15T16:07:20;44.80;;;19.13;;
65420;SDS011;52028;50.658;14.004;2022-11-15T16:09:48;48.95;;;19.98;;
65420;SDS011;52028;50.658;14.004;2022-11-15T16:12:27;51.10;;;19.67;;
65420;SDS011;52028;50.658;14.004;2022-11-15T16:14:52;49.80;;;20.20;;
65420;SDS011;52028;50.658;14.004;2022-11-15T16:17:18;57.38;;;21.67;;
65420;SDS011;52028;50.658;14.004;2022-11-15T16:19:45;49.70;;;21.13;;
65420;SDS011;52028;50.658;14.004;2022-11-15T16:22:11;60.40;;;22.42;;